DLH2RW EDDF-LKPR
Flight info
| Callsign | DLH2RW |
|---|---|
| Flight time | 0h 37m |
| Altitude | 29000 |
| Route | SULUS4D SULUS Z650 TONSU Z35 ODOMO DCT LOMKI |
| Aircraft | A320/M-SDE2E3FGIJ1LORWXYZ/HB1 |
Departure
| Time | 2026-04-15 07:21 |
|---|---|
| Airport | Frankfurt Main Airport (EDDF) |
Arrival
| Time | 2026-04-15 07:59 |
|---|---|
| Airport | Václav Havel Airport Prague (LKPR) |
| Time | Latitude | Longitude | Altitude | Speed | Heading |
|---|---|---|---|---|---|
| 2026-04-15 06:58 | 50.03810 | 8.54589 | 358 ft | 0 kts | 160° |
| 2026-04-15 07:18 | 50.03810 | 8.54590 | 347 ft | 0 kts | 160° |
| 2026-04-15 07:18 | 50.03787 | 8.54602 | 352 ft | 5 kts | 160° |
| 2026-04-15 07:18 | 50.03752 | 8.54624 | 351 ft | 6 kts | 153° |
| 2026-04-15 07:18 | 50.03728 | 8.54673 | 354 ft | 6 kts | 123° |
| 2026-04-15 07:19 | 50.03696 | 8.54706 | 350 ft | 6 kts | 156° |
| 2026-04-15 07:19 | 50.03666 | 8.54723 | 351 ft | 0 kts | 159° |
| 2026-04-15 07:20 | 50.03657 | 8.54728 | 349 ft | 6 kts | 160° |
| 2026-04-15 07:20 | 50.03617 | 8.54751 | 349 ft | 6 kts | 160° |
| 2026-04-15 07:20 | 50.03588 | 8.54808 | 346 ft | 8 kts | 92° |
| 2026-04-15 07:20 | 50.03600 | 8.54875 | 352 ft | 0 kts | 68° |
| 2026-04-15 07:21 | 50.03603 | 8.54886 | 352 ft | 9 kts | 68° |
| 2026-04-15 07:21 | 50.03716 | 8.55360 | 351 ft | 86 kts | 70° |
| 2026-04-15 07:21 | 50.03999 | 8.56542 | 360 ft | 145 kts | 69° |
| 2026-04-15 07:21 | 50.04355 | 8.58061 | 978 ft | 148 kts | 69° |
| 2026-04-15 07:22 | 50.04712 | 8.59570 | 1790 ft | 153 kts | 72° |
| 2026-04-15 07:22 | 50.05085 | 8.61229 | 2346 ft | 171 kts | 72° |
| 2026-04-15 07:22 | 50.05494 | 8.63091 | 2749 ft | 194 kts | 72° |
| 2026-04-15 07:22 | 50.05962 | 8.65211 | 3253 ft | 216 kts | 71° |
| 2026-04-15 07:23 | 50.06453 | 8.67423 | 4134 ft | 221 kts | 71° |
| 2026-04-15 07:23 | 50.06968 | 8.69743 | 5102 ft | 226 kts | 73° |
| 2026-04-15 07:23 | 50.07155 | 8.72195 | 5923 ft | 237 kts | 95° |
| 2026-04-15 07:23 | 50.06894 | 8.74855 | 6459 ft | 260 kts | 100° |
| 2026-04-15 07:24 | 50.06569 | 8.77658 | 7199 ft | 272 kts | 101° |
| 2026-04-15 07:24 | 50.06218 | 8.80587 | 8107 ft | 278 kts | 101° |
| 2026-04-15 07:24 | 50.05864 | 8.83575 | 9069 ft | 282 kts | 99° |
| 2026-04-15 07:24 | 50.05764 | 8.86663 | 9959 ft | 290 kts | 89° |
| 2026-04-15 07:25 | 50.05816 | 8.89837 | 10715 ft | 302 kts | 88° |
| 2026-04-15 07:25 | 50.05881 | 8.93245 | 11060 ft | 327 kts | 88° |
| 2026-04-15 07:25 | 50.05956 | 8.96911 | 11366 ft | 351 kts | 88° |
| 2026-04-15 07:25 | 50.06034 | 9.00837 | 11601 ft | 375 kts | 88° |
| 2026-04-15 07:26 | 50.06109 | 9.04995 | 11942 ft | 392 kts | 88° |
| 2026-04-15 07:26 | 50.06179 | 9.09269 | 12603 ft | 398 kts | 89° |
| 2026-04-15 07:26 | 50.06241 | 9.13606 | 13097 ft | 403 kts | 89° |
| 2026-04-15 07:26 | 50.06304 | 9.17965 | 13239 ft | 403 kts | 89° |
| 2026-04-15 07:27 | 50.06368 | 9.22350 | 13646 ft | 408 kts | 89° |
| 2026-04-15 07:27 | 50.06431 | 9.26772 | 14400 ft | 410 kts | 88° |
| 2026-04-15 07:27 | 50.06492 | 9.31224 | 15054 ft | 413 kts | 88° |
| 2026-04-15 07:27 | 50.06550 | 9.35704 | 15692 ft | 416 kts | 88° |
| 2026-04-15 07:28 | 50.06608 | 9.40218 | 16324 ft | 419 kts | 88° |
| 2026-04-15 07:28 | 50.06662 | 9.44768 | 16943 ft | 422 kts | 88° |
| 2026-04-15 07:28 | 50.06715 | 9.49349 | 17552 ft | 425 kts | 88° |
| 2026-04-15 07:28 | 50.06766 | 9.53966 | 18130 ft | 429 kts | 88° |
| 2026-04-15 07:29 | 50.06815 | 9.58624 | 18694 ft | 432 kts | 88° |
| 2026-04-15 07:29 | 50.06864 | 9.63314 | 19186 ft | 435 kts | 88° |
| 2026-04-15 07:29 | 50.06912 | 9.68034 | 19672 ft | 438 kts | 88° |
| 2026-04-15 07:29 | 50.06960 | 9.72793 | 20155 ft | 441 kts | 88° |
| 2026-04-15 07:30 | 50.07007 | 9.77578 | 20632 ft | 444 kts | 88° |
| 2026-04-15 07:30 | 50.07053 | 9.82394 | 21103 ft | 446 kts | 88° |
| 2026-04-15 07:30 | 50.07096 | 9.87239 | 21557 ft | 449 kts | 88° |
| 2026-04-15 07:30 | 50.07136 | 9.92117 | 22012 ft | 452 kts | 88° |
| 2026-04-15 07:31 | 50.07172 | 9.96958 | 22445 ft | 455 kts | 88° |
| 2026-04-15 07:31 | 50.07207 | 10.01889 | 22871 ft | 457 kts | 88° |
| 2026-04-15 07:31 | 50.07241 | 10.06860 | 23295 ft | 460 kts | 88° |
| 2026-04-15 07:31 | 50.07274 | 10.11851 | 23700 ft | 462 kts | 87° |
| 2026-04-15 07:32 | 50.07303 | 10.16869 | 24056 ft | 465 kts | 87° |
| 2026-04-15 07:32 | 50.07330 | 10.21912 | 24383 ft | 467 kts | 87° |
| 2026-04-15 07:32 | 50.07357 | 10.26988 | 24711 ft | 470 kts | 87° |
| 2026-04-15 07:32 | 50.07384 | 10.32078 | 25034 ft | 472 kts | 87° |
| 2026-04-15 07:33 | 50.07409 | 10.37190 | 25360 ft | 473 kts | 87° |
| 2026-04-15 07:33 | 50.07430 | 10.42324 | 25673 ft | 475 kts | 86° |
| 2026-04-15 07:33 | 50.07451 | 10.47479 | 25984 ft | 477 kts | 86° |
| 2026-04-15 07:33 | 50.07471 | 10.52653 | 26291 ft | 479 kts | 86° |
| 2026-04-15 07:34 | 50.07489 | 10.57838 | 26701 ft | 478 kts | 86° |
| 2026-04-15 07:34 | 50.07500 | 10.62997 | 27181 ft | 476 kts | 86° |
| 2026-04-15 07:34 | 50.07499 | 10.68144 | 27629 ft | 475 kts | 88° |
| 2026-04-15 07:34 | 50.07176 | 10.73283 | 28071 ft | 479 kts | 96° |
| 2026-04-15 07:35 | 50.06376 | 10.78323 | 28525 ft | 482 kts | 104° |
| 2026-04-15 07:35 | 50.05323 | 10.83279 | 28962 ft | 482 kts | 104° |
| 2026-04-15 07:35 | 50.04274 | 10.88231 | 29234 ft | 482 kts | 104° |
| 2026-04-15 07:35 | 50.03235 | 10.93171 | 29280 ft | 480 kts | 104° |
| 2026-04-15 07:36 | 50.01156 | 11.03032 | 29272 ft | 479 kts | 104° |
| 2026-04-15 07:36 | 49.99058 | 11.12868 | 29275 ft | 479 kts | 104° |
| 2026-04-15 07:37 | 49.97176 | 11.22747 | 29275 ft | 474 kts | 96° |
| 2026-04-15 07:37 | 49.96661 | 11.32868 | 29274 ft | 469 kts | 88° |
| 2026-04-15 07:38 | 49.96349 | 11.42975 | 29277 ft | 469 kts | 89° |
| 2026-04-15 07:38 | 49.96014 | 11.53086 | 29271 ft | 468 kts | 89° |
| 2026-04-15 07:39 | 49.95678 | 11.63184 | 29276 ft | 468 kts | 89° |
| 2026-04-15 07:39 | 49.95333 | 11.73275 | 29272 ft | 468 kts | 89° |
| 2026-04-15 07:40 | 49.94973 | 11.83350 | 29265 ft | 467 kts | 89° |
| 2026-04-15 07:40 | 49.94602 | 11.93416 | 29264 ft | 467 kts | 89° |
| 2026-04-15 07:41 | 49.94336 | 12.03474 | 29266 ft | 466 kts | 88° |
| 2026-04-15 07:41 | 49.94168 | 12.13512 | 29270 ft | 465 kts | 87° |
| 2026-04-15 07:42 | 49.93985 | 12.23547 | 29273 ft | 465 kts | 88° |
| 2026-04-15 07:42 | 49.93762 | 12.33584 | 29139 ft | 465 kts | 88° |
| 2026-04-15 07:43 | 49.93636 | 12.38593 | 28079 ft | 466 kts | 89° |
| 2026-04-15 07:43 | 49.93493 | 12.43640 | 26780 ft | 470 kts | 89° |
| 2026-04-15 07:43 | 49.93341 | 12.48728 | 25529 ft | 473 kts | 90° |
| 2026-04-15 07:43 | 49.93186 | 12.53843 | 24331 ft | 475 kts | 90° |
| 2026-04-15 07:44 | 49.93032 | 12.58970 | 23034 ft | 477 kts | 90° |
| 2026-04-15 07:44 | 49.92881 | 12.64096 | 22081 ft | 472 kts | 90° |
| 2026-04-15 07:44 | 49.92731 | 12.69133 | 21165 ft | 460 kts | 91° |
| 2026-04-15 07:44 | 49.92581 | 12.74024 | 19827 ft | 448 kts | 91° |
| 2026-04-15 07:45 | 49.92434 | 12.78749 | 19092 ft | 433 kts | 92° |
| 2026-04-15 07:45 | 49.92288 | 12.83420 | 18209 ft | 433 kts | 92° |
| 2026-04-15 07:45 | 49.92144 | 12.88072 | 17376 ft | 430 kts | 92° |
| 2026-04-15 07:45 | 49.91998 | 12.92690 | 16588 ft | 427 kts | 92° |
| 2026-04-15 07:46 | 49.91850 | 12.97264 | 15829 ft | 423 kts | 92° |
| 2026-04-15 07:46 | 49.91702 | 13.01807 | 15088 ft | 420 kts | 93° |
| 2026-04-15 07:46 | 49.91553 | 13.06314 | 14380 ft | 417 kts | 93° |
| 2026-04-15 07:46 | 49.91400 | 13.10728 | 13641 ft | 413 kts | 93° |
| 2026-04-15 07:47 | 49.91243 | 13.15150 | 12954 ft | 407 kts | 93° |
| 2026-04-15 07:47 | 49.91089 | 13.19497 | 12270 ft | 402 kts | 93° |
| 2026-04-15 07:47 | 49.90939 | 13.23799 | 11641 ft | 396 kts | 93° |
| 2026-04-15 07:47 | 49.90794 | 13.27961 | 11481 ft | 377 kts | 94° |
| 2026-04-15 07:48 | 49.90656 | 13.31925 | 11354 ft | 359 kts | 94° |
| 2026-04-15 07:48 | 49.90523 | 13.35681 | 11221 ft | 336 kts | 94° |
| 2026-04-15 07:48 | 49.90398 | 13.39151 | 11072 ft | 310 kts | 94° |
| 2026-04-15 07:48 | 49.90279 | 13.42414 | 10684 ft | 297 kts | 94° |
| 2026-04-15 07:49 | 49.90165 | 13.45491 | 10556 ft | 275 kts | 94° |
| 2026-04-15 07:49 | 49.90057 | 13.48373 | 10384 ft | 263 kts | 94° |
| 2026-04-15 07:49 | 49.89951 | 13.51183 | 10196 ft | 258 kts | 94° |
| 2026-04-15 07:49 | 49.89936 | 13.53963 | 10065 ft | 258 kts | 85° |
| 2026-04-15 07:50 | 49.90258 | 13.56708 | 9810 ft | 261 kts | 74° |
| 2026-04-15 07:50 | 49.90923 | 13.59323 | 9442 ft | 261 kts | 64° |
| 2026-04-15 07:50 | 49.91714 | 13.61851 | 9068 ft | 261 kts | 64° |
| 2026-04-15 07:50 | 49.92496 | 13.64384 | 8708 ft | 260 kts | 65° |
| 2026-04-15 07:51 | 49.93274 | 13.66917 | 8346 ft | 259 kts | 65° |
| 2026-04-15 07:51 | 49.94033 | 13.69387 | 7982 ft | 248 kts | 65° |
| 2026-04-15 07:51 | 49.94518 | 13.70968 | 7756 ft | 242 kts | 65° |
| 2026-04-15 07:51 | 49.94952 | 13.72376 | 7508 ft | 239 kts | 64° |
| 2026-04-15 07:52 | 49.95659 | 13.74683 | 7090 ft | 235 kts | 64° |
| 2026-04-15 07:52 | 49.96360 | 13.76976 | 6673 ft | 237 kts | 64° |
| 2026-04-15 07:52 | 49.96827 | 13.78506 | 6415 ft | 238 kts | 64° |
| 2026-04-15 07:52 | 49.97535 | 13.80830 | 6037 ft | 238 kts | 64° |
| 2026-04-15 07:53 | 49.98234 | 13.83130 | 5716 ft | 233 kts | 64° |
| 2026-04-15 07:53 | 49.98926 | 13.85404 | 5412 ft | 233 kts | 64° |
| 2026-04-15 07:53 | 49.99618 | 13.87678 | 5105 ft | 232 kts | 64° |
| 2026-04-15 07:53 | 50.00308 | 13.89944 | 4793 ft | 230 kts | 64° |
| 2026-04-15 07:54 | 50.00974 | 13.92130 | 4436 ft | 216 kts | 64° |
| 2026-04-15 07:54 | 50.01592 | 13.94168 | 4109 ft | 202 kts | 64° |
| 2026-04-15 07:54 | 50.02169 | 13.96102 | 4009 ft | 192 kts | 65° |
| 2026-04-15 07:54 | 50.02711 | 13.97905 | 4023 ft | 175 kts | 65° |
| 2026-04-15 07:55 | 50.03215 | 13.99572 | 3999 ft | 167 kts | 65° |
| 2026-04-15 07:55 | 50.03684 | 14.01126 | 3957 ft | 164 kts | 65° |
| 2026-04-15 07:55 | 50.04652 | 14.04309 | 3806 ft | 162 kts | 64° |
| 2026-04-15 07:56 | 50.05134 | 14.05895 | 3633 ft | 162 kts | 65° |
| 2026-04-15 07:56 | 50.05612 | 14.07478 | 3420 ft | 161 kts | 65° |
| 2026-04-15 07:56 | 50.06088 | 14.09046 | 3199 ft | 159 kts | 64° |
| 2026-04-15 07:56 | 50.06535 | 14.10525 | 3035 ft | 143 kts | 64° |
| 2026-04-15 07:57 | 50.06942 | 14.11881 | 2809 ft | 135 kts | 63° |
| 2026-04-15 07:57 | 50.07333 | 14.13173 | 2610 ft | 132 kts | 64° |
| 2026-04-15 07:57 | 50.07721 | 14.14468 | 2418 ft | 131 kts | 64° |
| 2026-04-15 07:57 | 50.08120 | 14.15783 | 2241 ft | 135 kts | 63° |
| 2026-04-15 07:58 | 50.08521 | 14.17105 | 2053 ft | 138 kts | 62° |
| 2026-04-15 07:58 | 50.08931 | 14.18454 | 1825 ft | 137 kts | 62° |
| 2026-04-15 07:58 | 50.09333 | 14.19788 | 1629 ft | 135 kts | 63° |
| 2026-04-15 07:58 | 50.09726 | 14.21116 | 1444 ft | 134 kts | 62° |
| 2026-04-15 07:59 | 50.10120 | 14.22425 | 1286 ft | 133 kts | 62° |
| 2026-04-15 07:59 | 50.10503 | 14.23700 | 1172 ft | 120 kts | 64° |
| 2026-04-15 07:59 | 50.10733 | 14.24469 | 1162 ft | 35 kts | 65° |
| 2026-04-15 07:59 | 50.10800 | 14.24698 | 1159 ft | 24 kts | 74° |
| 2026-04-15 08:00 | 50.10818 | 14.24981 | 1155 ft | 25 kts | 93° |
| 2026-04-15 08:00 | 50.10780 | 14.25246 | 1157 ft | 26 kts | 117° |
| 2026-04-15 08:00 | 50.10695 | 14.25477 | 1165 ft | 23 kts | 119° |
| 2026-04-15 08:00 | 50.10621 | 14.25680 | 1172 ft | 14 kts | 120° |
| 2026-04-15 08:01 | 50.10602 | 14.25758 | 1172 ft | 9 kts | 91° |
| 2026-04-15 08:01 | 50.10663 | 14.25855 | 1173 ft | 15 kts | 33° |
| 2026-04-15 08:01 | 50.10759 | 14.25956 | 1172 ft | 18 kts | 34° |
| 2026-04-15 08:01 | 50.10869 | 14.26076 | 1170 ft | 16 kts | 40° |
| 2026-04-15 08:02 | 50.10853 | 14.26199 | 1169 ft | 12 kts | 123° |
| 2026-04-15 08:02 | 50.10817 | 14.26303 | 1170 ft | 10 kts | 114° |
| 2026-04-15 08:02 | 50.10782 | 14.26392 | 1169 ft | 9 kts | 124° |
| 2026-04-15 08:02 | 50.10744 | 14.26477 | 1173 ft | 6 kts | 132° |
| 2026-04-15 08:03 | 50.10711 | 14.26464 | 1170 ft | 5 kts | 210° |
| 2026-04-15 08:03 | 50.10685 | 14.26437 | 1171 ft | 4 kts | 214° |
| 2026-04-15 08:03 | 50.10677 | 14.26429 | 1172 ft | 0 kts | 214° |
| 2026-04-15 08:03 | 50.10675 | 14.26426 | 1171 ft | 0 kts | 214° |
| 2026-04-15 08:17 | 50.10675 | 14.26427 | 1174 ft | 0 kts | 214° |
| 2026-04-15 08:30 | 50.10676 | 14.26427 | 1174 ft | 0 kts | 214° |
| 2026-04-15 08:44 | 50.10676 | 14.26428 | 1170 ft | 0 kts | 214° |
| 2026-04-15 08:59 | 50.10677 | 14.26428 | 1174 ft | 0 kts | 214° |
| 2026-04-15 09:13 | 50.10677 | 14.26429 | 1174 ft | 0 kts | 214° |
| 2026-04-15 09:32 | 50.10678 | 14.26429 | 1174 ft | 0 kts | 214° |
| 2026-04-15 09:44 | 50.10678 | 14.26430 | 1174 ft | 0 kts | 214° |
| 2026-04-15 10:07 | 50.10679 | 14.26430 | 1174 ft | 0 kts | 214° |
| 2026-04-15 10:20 | 50.10679 | 14.26431 | 1174 ft | 0 kts | 214° |
| 2026-04-15 10:47 | 50.10680 | 14.26431 | 1201 ft | 0 kts | 214° |
| 2026-04-15 10:58 | 50.10680 | 14.26432 | 1174 ft | 0 kts | 214° |
| 2026-04-15 11:41 | 50.10681 | 14.26432 | 1174 ft | 0 kts | 214° |
| 2026-04-15 11:50 | 50.10681 | 14.26433 | 1174 ft | 0 kts | 214° |